sensor_id;sensor_type;location;lat;lon;timestamp;P1;durP1;ratioP1;P2;durP2;ratioP2
21181;SDS011;10749;46.296;7.524;2023-07-30T00:01:02;6.68;;;3.20;;
21181;SDS011;10749;46.296;7.524;2023-07-30T00:03:27;9.25;;;4.00;;
21181;SDS011;10749;46.296;7.524;2023-07-30T00:05:53;5.65;;;3.97;;
21181;SDS011;10749;46.296;7.524;2023-07-30T00:08:19;7.15;;;4.10;;
21181;SDS011;10749;46.296;7.524;2023-07-30T00:10:45;8.35;;;4.10;;
21181;SDS011;10749;46.296;7.524;2023-07-30T00:13:10;6.38;;;4.07;;
21181;SDS011;10749;46.296;7.524;2023-07-30T00:15:35;6.65;;;4.00;;
21181;SDS011;10749;46.296;7.524;2023-07-30T00:18:00;7.47;;;3.95;;
21181;SDS011;10749;46.296;7.524;2023-07-30T00:20:26;6.75;;;4.30;;
21181;SDS011;10749;46.296;7.524;2023-07-30T00:22:51;9.50;;;4.35;;
21181;SDS011;10749;46.296;7.524;2023-07-30T00:25:16;7.30;;;4.32;;
21181;SDS011;10749;46.296;7.524;2023-07-30T00:27:41;8.13;;;4.63;;
21181;SDS011;10749;46.296;7.524;2023-07-30T00:30:07;8.32;;;4.78;;
21181;SDS011;10749;46.296;7.524;2023-07-30T00:32:32;7.55;;;5.40;;
21181;SDS011;10749;46.296;7.524;2023-07-30T00:34:58;9.65;;;5.20;;
21181;SDS011;10749;46.296;7.524;2023-07-30T00:37:23;7.88;;;5.00;;
21181;SDS011;10749;46.296;7.524;2023-07-30T00:39:48;6.18;;;4.65;;
21181;SDS011;10749;46.296;7.524;2023-07-30T00:42:14;8.90;;;4.75;;
21181;SDS011;10749;46.296;7.524;2023-07-30T00:44:39;6.43;;;4.65;;
21181;SDS011;10749;46.296;7.524;2023-07-30T00:47:04;7.25;;;5.20;;
21181;SDS011;10749;46.296;7.524;2023-07-30T00:49:30;9.70;;;4.90;;
21181;SDS011;10749;46.296;7.524;2023-07-30T00:51:55;7.88;;;4.93;;
21181;SDS011;10749;46.296;7.524;2023-07-30T00:54:21;7.88;;;5.05;;
21181;SDS011;10749;46.296;7.524;2023-07-30T00:56:49;8.80;;;5.05;;
21181;SDS011;10749;46.296;7.524;2023-07-30T00:59:17;8.38;;;4.50;;
21181;SDS011;10749;46.296;7.524;2023-07-30T01:01:43;6.40;;;4.53;;
21181;SDS011;10749;46.296;7.524;2023-07-30T01:04:12;5.82;;;3.90;;
21181;SDS011;10749;46.296;7.524;2023-07-30T01:06:38;4.50;;;3.60;;
21181;SDS011;10749;46.296;7.524;2023-07-30T01:09:03;6.57;;;3.72;;
21181;SDS011;10749;46.296;7.524;2023-07-30T01:11:29;6.68;;;4.70;;
21181;SDS011;10749;46.296;7.524;2023-07-30T01:13:54;7.10;;;4.72;;
21181;SDS011;10749;46.296;7.524;2023-07-30T01:16:20;7.40;;;4.40;;
21181;SDS011;10749;46.296;7.524;2023-07-30T01:18:46;7.22;;;4.10;;
21181;SDS011;10749;46.296;7.524;2023-07-30T01:21:11;6.78;;;4.20;;
21181;SDS011;10749;46.296;7.524;2023-07-30T01:23:37;6.15;;;3.97;;
21181;SDS011;10749;46.296;7.524;2023-07-30T01:26:04;7.20;;;4.47;;
21181;SDS011;10749;46.296;7.524;2023-07-30T01:28:42;6.70;;;4.15;;
21181;SDS011;10749;46.296;7.524;2023-07-30T01:31:10;7.03;;;4.70;;
21181;SDS011;10749;46.296;7.524;2023-07-30T01:33:40;8.23;;;5.03;;
21181;SDS011;10749;46.296;7.524;2023-07-30T01:36:07;7.40;;;4.90;;
21181;SDS011;10749;46.296;7.524;2023-07-30T01:38:35;7.65;;;5.10;;
21181;SDS011;10749;46.296;7.524;2023-07-30T01:41:02;7.45;;;4.78;;
21181;SDS011;10749;46.296;7.524;2023-07-30T01:43:28;10.85;;;5.20;;
21181;SDS011;10749;46.296;7.524;2023-07-30T01:45:53;6.35;;;4.72;;
21181;SDS011;10749;46.296;7.524;2023-07-30T01:48:18;6.78;;;4.93;;
21181;SDS011;10749;46.296;7.524;2023-07-30T01:50:44;7.15;;;4.80;;
21181;SDS011;10749;46.296;7.524;2023-07-30T01:53:12;6.43;;;4.75;;
21181;SDS011;10749;46.296;7.524;2023-07-30T01:55:37;6.25;;;4.72;;
21181;SDS011;10749;46.296;7.524;2023-07-30T01:58:04;6.40;;;4.30;;
21181;SDS011;10749;46.296;7.524;2023-07-30T02:00:29;6.82;;;3.20;;
21181;SDS011;10749;46.296;7.524;2023-07-30T02:02:55;6.50;;;3.90;;
21181;SDS011;10749;46.296;7.524;2023-07-30T02:05:20;4.82;;;3.65;;
21181;SDS011;10749;46.296;7.524;2023-07-30T02:07:45;7.03;;;4.15;;
21181;SDS011;10749;46.296;7.524;2023-07-30T02:10:10;6.45;;;4.40;;
21181;SDS011;10749;46.296;7.524;2023-07-30T02:12:36;7.20;;;4.85;;
21181;SDS011;10749;46.296;7.524;2023-07-30T02:15:01;7.40;;;4.60;;
21181;SDS011;10749;46.296;7.524;2023-07-30T02:17:26;9.73;;;4.68;;
21181;SDS011;10749;46.296;7.524;2023-07-30T02:19:52;8.05;;;5.00;;
21181;SDS011;10749;46.296;7.524;2023-07-30T02:22:17;8.52;;;5.03;;
21181;SDS011;10749;46.296;7.524;2023-07-30T02:24:42;7.07;;;4.75;;
21181;SDS011;10749;46.296;7.524;2023-07-30T02:27:08;7.65;;;4.35;;
21181;SDS011;10749;46.296;7.524;2023-07-30T02:29:33;6.82;;;4.93;;
21181;SDS011;10749;46.296;7.524;2023-07-30T02:31:58;6.95;;;4.40;;
21181;SDS011;10749;46.296;7.524;2023-07-30T02:34:24;6.40;;;4.20;;
21181;SDS011;10749;46.296;7.524;2023-07-30T02:36:50;7.53;;;3.78;;
21181;SDS011;10749;46.296;7.524;2023-07-30T02:39:15;5.78;;;4.03;;
21181;SDS011;10749;46.296;7.524;2023-07-30T02:41:40;6.93;;;4.35;;
21181;SDS011;10749;46.296;7.524;2023-07-30T02:44:05;6.10;;;4.25;;
21181;SDS011;10749;46.296;7.524;2023-07-30T02:46:31;7.88;;;3.78;;
21181;SDS011;10749;46.296;7.524;2023-07-30T02:48:56;5.38;;;4.18;;
21181;SDS011;10749;46.296;7.524;2023-07-30T02:51:21;7.15;;;3.63;;
21181;SDS011;10749;46.296;7.524;2023-07-30T02:53:47;7.68;;;4.60;;
21181;SDS011;10749;46.296;7.524;2023-07-30T02:56:12;5.45;;;4.68;;
21181;SDS011;10749;46.296;7.524;2023-07-30T02:58:37;6.93;;;4.00;;
21181;SDS011;10749;46.296;7.524;2023-07-30T03:01:06;4.28;;;3.60;;
21181;SDS011;10749;46.296;7.524;2023-07-30T03:03:32;6.13;;;4.10;;
21181;SDS011;10749;46.296;7.524;2023-07-30T03:05:58;5.88;;;4.30;;
21181;SDS011;10749;46.296;7.524;2023-07-30T03:08:23;6.57;;;4.47;;
21181;SDS011;10749;46.296;7.524;2023-07-30T03:10:48;6.65;;;4.63;;
21181;SDS011;10749;46.296;7.524;2023-07-30T03:13:13;7.22;;;4.40;;
21181;SDS011;10749;46.296;7.524;2023-07-30T03:15:39;8.55;;;4.68;;
21181;SDS011;10749;46.296;7.524;2023-07-30T03:18:04;7.00;;;4.40;;
21181;SDS011;10749;46.296;7.524;2023-07-30T03:20:29;5.45;;;4.35;;
21181;SDS011;10749;46.296;7.524;2023-07-30T03:22:54;4.95;;;4.13;;
21181;SDS011;10749;46.296;7.524;2023-07-30T03:25:20;5.45;;;4.25;;
21181;SDS011;10749;46.296;7.524;2023-07-30T03:27:45;5.15;;;3.83;;
21181;SDS011;10749;46.296;7.524;2023-07-30T03:30:10;5.93;;;4.65;;
21181;SDS011;10749;46.296;7.524;2023-07-30T03:32:36;6.65;;;4.60;;
21181;SDS011;10749;46.296;7.524;2023-07-30T03:35:01;6.20;;;4.85;;
21181;SDS011;10749;46.296;7.524;2023-07-30T03:37:26;5.53;;;4.13;;
21181;SDS011;10749;46.296;7.524;2023-07-30T03:39:52;5.28;;;4.43;;
21181;SDS011;10749;46.296;7.524;2023-07-30T03:42:17;6.70;;;4.95;;
21181;SDS011;10749;46.296;7.524;2023-07-30T03:44:42;7.10;;;4.40;;
21181;SDS011;10749;46.296;7.524;2023-07-30T03:47:08;7.38;;;4.93;;
21181;SDS011;10749;46.296;7.524;2023-07-30T03:49:33;7.10;;;4.78;;
21181;SDS011;10749;46.296;7.524;2023-07-30T03:51:59;7.22;;;4.60;;
21181;SDS011;10749;46.296;7.524;2023-07-30T03:54:24;7.38;;;4.45;;
21181;SDS011;10749;46.296;7.524;2023-07-30T03:56:50;7.60;;;4.38;;
21181;SDS011;10749;46.296;7.524;2023-07-30T03:59:15;6.25;;;4.60;;
21181;SDS011;10749;46.296;7.524;2023-07-30T04:01:40;6.15;;;4.35;;
21181;SDS011;10749;46.296;7.524;2023-07-30T04:04:06;8.73;;;4.65;;
21181;SDS011;10749;46.296;7.524;2023-07-30T04:06:31;6.78;;;4.70;;
21181;SDS011;10749;46.296;7.524;2023-07-30T04:08:56;7.60;;;4.53;;
21181;SDS011;10749;46.296;7.524;2023-07-30T04:11:22;5.78;;;4.32;;
21181;SDS011;10749;46.296;7.524;2023-07-30T04:13:47;5.47;;;3.20;;
21181;SDS011;10749;46.296;7.524;2023-07-30T04:16:12;7.05;;;3.60;;
21181;SDS011;10749;46.296;7.524;2023-07-30T04:18:38;5.32;;;2.88;;
21181;SDS011;10749;46.296;7.524;2023-07-30T04:21:03;5.35;;;2.60;;
21181;SDS011;10749;46.296;7.524;2023-07-30T04:23:28;5.03;;;2.95;;
21181;SDS011;10749;46.296;7.524;2023-07-30T04:25:54;3.92;;;2.80;;
21181;SDS011;10749;46.296;7.524;2023-07-30T04:28:19;4.97;;;2.80;;
21181;SDS011;10749;46.296;7.524;2023-07-30T04:30:44;6.03;;;3.58;;
21181;SDS011;10749;46.296;7.524;2023-07-30T04:33:11;5.70;;;3.28;;
21181;SDS011;10749;46.296;7.524;2023-07-30T04:35:38;6.70;;;3.60;;
21181;SDS011;10749;46.296;7.524;2023-07-30T04:38:04;5.68;;;3.13;;
21181;SDS011;10749;46.296;7.524;2023-07-30T04:40:29;5.70;;;3.30;;
21181;SDS011;10749;46.296;7.524;2023-07-30T04:42:54;6.63;;;3.35;;
21181;SDS011;10749;46.296;7.524;2023-07-30T04:45:20;4.72;;;3.10;;
21181;SDS011;10749;46.296;7.524;2023-07-30T04:47:45;4.93;;;3.15;;
21181;SDS011;10749;46.296;7.524;2023-07-30T04:50:10;5.82;;;3.70;;
21181;SDS011;10749;46.296;7.524;2023-07-30T04:52:36;5.10;;;3.28;;
21181;SDS011;10749;46.296;7.524;2023-07-30T04:55:01;6.35;;;3.60;;
21181;SDS011;10749;46.296;7.524;2023-07-30T04:57:27;5.18;;;3.58;;
21181;SDS011;10749;46.296;7.524;2023-07-30T04:59:52;5.38;;;3.33;;
21181;SDS011;10749;46.296;7.524;2023-07-30T05:02:17;3.97;;;3.30;;
21181;SDS011;10749;46.296;7.524;2023-07-30T05:04:43;3.85;;;3.38;;
21181;SDS011;10749;46.296;7.524;2023-07-30T05:07:08;5.15;;;3.50;;
21181;SDS011;10749;46.296;7.524;2023-07-30T05:09:33;6.13;;;3.10;;
21181;SDS011;10749;46.296;7.524;2023-07-30T05:11:59;5.10;;;3.55;;
21181;SDS011;10749;46.296;7.524;2023-07-30T05:14:24;5.05;;;3.58;;
21181;SDS011;10749;46.296;7.524;2023-07-30T05:16:49;5.80;;;3.60;;
21181;SDS011;10749;46.296;7.524;2023-07-30T05:19:15;4.82;;;3.20;;
21181;SDS011;10749;46.296;7.524;2023-07-30T05:21:41;5.30;;;2.95;;
21181;SDS011;10749;46.296;7.524;2023-07-30T05:24:07;5.13;;;3.22;;
21181;SDS011;10749;46.296;7.524;2023-07-30T05:26:32;5.32;;;3.65;;
21181;SDS011;10749;46.296;7.524;2023-07-30T05:28:57;4.65;;;3.08;;
21181;SDS011;10749;46.296;7.524;2023-07-30T05:31:23;6.13;;;3.40;;
21181;SDS011;10749;46.296;7.524;2023-07-30T05:33:48;7.85;;;3.75;;
21181;SDS011;10749;46.296;7.524;2023-07-30T05:36:13;4.65;;;3.58;;
21181;SDS011;10749;46.296;7.524;2023-07-30T05:38:39;4.45;;;3.55;;
21181;SDS011;10749;46.296;7.524;2023-07-30T05:41:04;4.60;;;3.58;;
21181;SDS011;10749;46.296;7.524;2023-07-30T05:43:29;6.50;;;4.05;;
21181;SDS011;10749;46.296;7.524;2023-07-30T05:45:54;4.82;;;3.90;;
21181;SDS011;10749;46.296;7.524;2023-07-30T05:48:20;6.10;;;3.88;;
21181;SDS011;10749;46.296;7.524;2023-07-30T05:50:45;7.65;;;4.38;;
21181;SDS011;10749;46.296;7.524;2023-07-30T05:53:10;5.03;;;4.30;;
21181;SDS011;10749;46.296;7.524;2023-07-30T05:55:36;6.55;;;4.03;;
21181;SDS011;10749;46.296;7.524;2023-07-30T05:58:01;5.90;;;3.70;;
21181;SDS011;10749;46.296;7.524;2023-07-30T06:00:26;5.18;;;3.60;;
21181;SDS011;10749;46.296;7.524;2023-07-30T06:02:51;6.38;;;3.58;;
21181;SDS011;10749;46.296;7.524;2023-07-30T06:05:17;8.90;;;3.67;;
21181;SDS011;10749;46.296;7.524;2023-07-30T06:07:42;4.47;;;3.83;;
21181;SDS011;10749;46.296;7.524;2023-07-30T06:10:08;7.18;;;4.13;;
21181;SDS011;10749;46.296;7.524;2023-07-30T06:12:33;4.80;;;3.75;;
21181;SDS011;10749;46.296;7.524;2023-07-30T06:14:59;5.90;;;3.50;;
21181;SDS011;10749;46.296;7.524;2023-07-30T06:17:24;6.35;;;3.95;;
21181;SDS011;10749;46.296;7.524;2023-07-30T06:19:49;4.32;;;3.50;;
21181;SDS011;10749;46.296;7.524;2023-07-30T06:22:14;7.13;;;3.95;;
21181;SDS011;10749;46.296;7.524;2023-07-30T06:24:40;3.70;;;3.28;;
21181;SDS011;10749;46.296;7.524;2023-07-30T06:27:05;5.88;;;3.88;;
21181;SDS011;10749;46.296;7.524;2023-07-30T06:29:31;4.85;;;4.03;;
21181;SDS011;10749;46.296;7.524;2023-07-30T06:31:56;5.90;;;3.40;;
21181;SDS011;10749;46.296;7.524;2023-07-30T06:34:21;5.82;;;4.20;;
21181;SDS011;10749;46.296;7.524;2023-07-30T06:36:46;7.00;;;4.13;;
21181;SDS011;10749;46.296;7.524;2023-07-30T06:39:12;6.22;;;4.03;;
21181;SDS011;10749;46.296;7.524;2023-07-30T06:41:37;4.60;;;4.07;;
21181;SDS011;10749;46.296;7.524;2023-07-30T06:44:02;6.15;;;4.00;;
21181;SDS011;10749;46.296;7.524;2023-07-30T06:46:28;5.40;;;3.67;;
21181;SDS011;10749;46.296;7.524;2023-07-30T06:48:53;5.07;;;3.78;;
21181;SDS011;10749;46.296;7.524;2023-07-30T06:51:19;7.05;;;3.83;;
21181;SDS011;10749;46.296;7.524;2023-07-30T06:53:45;5.32;;;3.88;;
21181;SDS011;10749;46.296;7.524;2023-07-30T06:56:10;5.10;;;3.80;;
21181;SDS011;10749;46.296;7.524;2023-07-30T06:58:36;5.43;;;3.60;;
21181;SDS011;10749;46.296;7.524;2023-07-30T07:01:01;8.18;;;4.03;;
21181;SDS011;10749;46.296;7.524;2023-07-30T07:03:26;8.88;;;4.30;;
21181;SDS011;10749;46.296;7.524;2023-07-30T07:05:55;5.78;;;3.90;;
21181;SDS011;10749;46.296;7.524;2023-07-30T07:08:21;7.18;;;4.20;;
21181;SDS011;10749;46.296;7.524;2023-07-30T07:10:47;6.28;;;4.43;;
21181;SDS011;10749;46.296;7.524;2023-07-30T07:13:13;7.22;;;4.40;;
21181;SDS011;10749;46.296;7.524;2023-07-30T07:15:40;5.28;;;4.53;;
21181;SDS011;10749;46.296;7.524;2023-07-30T07:18:06;7.50;;;4.35;;
21181;SDS011;10749;46.296;7.524;2023-07-30T07:20:32;6.53;;;4.30;;
21181;SDS011;10749;46.296;7.524;2023-07-30T07:22:58;4.80;;;3.70;;
21181;SDS011;10749;46.296;7.524;2023-07-30T07:25:23;8.60;;;4.15;;
21181;SDS011;10749;46.296;7.524;2023-07-30T07:27:49;5.47;;;3.85;;
21181;SDS011;10749;46.296;7.524;2023-07-30T07:30:14;5.90;;;4.05;;
21181;SDS011;10749;46.296;7.524;2023-07-30T07:32:39;5.93;;;4.40;;
21181;SDS011;10749;46.296;7.524;2023-07-30T07:35:05;4.75;;;4.07;;
21181;SDS011;10749;46.296;7.524;2023-07-30T07:37:31;8.02;;;4.20;;
21181;SDS011;10749;46.296;7.524;2023-07-30T07:39:57;4.90;;;4.05;;
21181;SDS011;10749;46.296;7.524;2023-07-30T07:42:22;4.22;;;3.70;;
21181;SDS011;10749;46.296;7.524;2023-07-30T07:44:47;6.50;;;4.40;;
21181;SDS011;10749;46.296;7.524;2023-07-30T07:47:13;5.57;;;4.03;;
21181;SDS011;10749;46.296;7.524;2023-07-30T07:49:38;7.10;;;4.30;;
21181;SDS011;10749;46.296;7.524;2023-07-30T07:52:04;8.95;;;4.30;;
21181;SDS011;10749;46.296;7.524;2023-07-30T07:54:29;4.95;;;4.20;;
21181;SDS011;10749;46.296;7.524;2023-07-30T07:56:55;6.43;;;4.80;;
21181;SDS011;10749;46.296;7.524;2023-07-30T07:59:20;7.50;;;4.60;;
21181;SDS011;10749;46.296;7.524;2023-07-30T08:01:45;6.38;;;4.30;;
21181;SDS011;10749;46.296;7.524;2023-07-30T08:04:11;7.15;;;4.43;;
21181;SDS011;10749;46.296;7.524;2023-07-30T08:06:36;5.93;;;3.95;;
21181;SDS011;10749;46.296;7.524;2023-07-30T08:09:01;6.05;;;3.97;;
21181;SDS011;10749;46.296;7.524;2023-07-30T08:11:27;4.40;;;3.80;;
21181;SDS011;10749;46.296;7.524;2023-07-30T08:13:52;6.28;;;3.50;;
21181;SDS011;10749;46.296;7.524;2023-07-30T08:16:17;6.10;;;4.18;;
21181;SDS011;10749;46.296;7.524;2023-07-30T08:18:43;5.07;;;4.10;;
21181;SDS011;10749;46.296;7.524;2023-07-30T08:21:08;6.40;;;4.72;;
21181;SDS011;10749;46.296;7.524;2023-07-30T08:23:33;5.45;;;4.28;;
21181;SDS011;10749;46.296;7.524;2023-07-30T08:25:59;4.97;;;4.10;;
21181;SDS011;10749;46.296;7.524;2023-07-30T08:28:24;4.35;;;3.83;;
21181;SDS011;10749;46.296;7.524;2023-07-30T08:30:49;4.90;;;3.67;;
21181;SDS011;10749;46.296;7.524;2023-07-30T08:33:15;4.95;;;4.05;;
21181;SDS011;10749;46.296;7.524;2023-07-30T08:35:40;6.15;;;3.58;;
21181;SDS011;10749;46.296;7.524;2023-07-30T08:38:05;4.70;;;3.85;;
21181;SDS011;10749;46.296;7.524;2023-07-30T08:40:31;6.55;;;4.10;;
21181;SDS011;10749;46.296;7.524;2023-07-30T08:42:57;6.35;;;3.78;;
21181;SDS011;10749;46.296;7.524;2023-07-30T08:45:22;6.82;;;4.57;;
21181;SDS011;10749;46.296;7.524;2023-07-30T08:47:48;9.57;;;5.93;;
21181;SDS011;10749;46.296;7.524;2023-07-30T08:50:13;7.93;;;4.80;;
21181;SDS011;10749;46.296;7.524;2023-07-30T08:52:39;7.57;;;3.88;;
21181;SDS011;10749;46.296;7.524;2023-07-30T08:55:05;8.52;;;4.47;;
21181;SDS011;10749;46.296;7.524;2023-07-30T08:57:31;8.38;;;4.43;;
21181;SDS011;10749;46.296;7.524;2023-07-30T09:00:04;6.35;;;4.07;;
21181;SDS011;10749;46.296;7.524;2023-07-30T09:02:34;9.43;;;4.47;;
21181;SDS011;10749;46.296;7.524;2023-07-30T09:05:16;7.18;;;4.47;;
21181;SDS011;10749;46.296;7.524;2023-07-30T09:07:41;7.85;;;4.30;;
21181;SDS011;10749;46.296;7.524;2023-07-30T09:10:06;8.07;;;4.45;;
21181;SDS011;10749;46.296;7.524;2023-07-30T09:12:33;9.43;;;4.38;;
21181;SDS011;10749;46.296;7.524;2023-07-30T09:14:59;9.20;;;3.80;;
21181;SDS011;10749;46.296;7.524;2023-07-30T09:17:26;5.15;;;3.30;;
21181;SDS011;10749;46.296;7.524;2023-07-30T09:19:52;6.07;;;3.13;;
21181;SDS011;10749;46.296;7.524;2023-07-30T09:22:24;5.00;;;3.40;;
21181;SDS011;10749;46.296;7.524;2023-07-30T09:24:54;6.43;;;3.70;;
21181;SDS011;10749;46.296;7.524;2023-07-30T09:27:21;7.85;;;4.13;;
21181;SDS011;10749;46.296;7.524;2023-07-30T09:29:55;7.25;;;3.78;;
21181;SDS011;10749;46.296;7.524;2023-07-30T09:32:32;5.80;;;3.80;;
21181;SDS011;10749;46.296;7.524;2023-07-30T09:35:05;7.53;;;4.03;;
21181;SDS011;10749;46.296;7.524;2023-07-30T09:37:37;8.10;;;3.63;;
21181;SDS011;10749;46.296;7.524;2023-07-30T09:40:08;6.22;;;3.70;;
21181;SDS011;10749;46.296;7.524;2023-07-30T09:42:35;5.95;;;3.38;;
21181;SDS011;10749;46.296;7.524;2023-07-30T09:45:04;3.80;;;2.45;;
21181;SDS011;10749;46.296;7.524;2023-07-30T09:47:32;3.00;;;2.60;;
21181;SDS011;10749;46.296;7.524;2023-07-30T09:49:59;3.72;;;2.72;;
21181;SDS011;10749;46.296;7.524;2023-07-30T09:52:24;3.08;;;2.42;;
21181;SDS011;10749;46.296;7.524;2023-07-30T09:54:49;5.03;;;3.08;;
21181;SDS011;10749;46.296;7.524;2023-07-30T09:57:17;3.90;;;3.00;;
21181;SDS011;10749;46.296;7.524;2023-07-30T09:59:43;4.22;;;3.10;;
21181;SDS011;10749;46.296;7.524;2023-07-30T10:02:08;3.70;;;2.88;;
21181;SDS011;10749;46.296;7.524;2023-07-30T10:04:36;5.03;;;2.78;;
21181;SDS011;10749;46.296;7.524;2023-07-30T10:07:08;4.63;;;3.25;;
21181;SDS011;10749;46.296;7.524;2023-07-30T10:09:40;4.50;;;2.88;;
21181;SDS011;10749;46.296;7.524;2023-07-30T10:12:23;5.75;;;3.88;;
21181;SDS011;10749;46.296;7.524;2023-07-30T10:14:52;7.35;;;3.75;;
21181;SDS011;10749;46.296;7.524;2023-07-30T10:17:17;3.95;;;3.15;;
21181;SDS011;10749;46.296;7.524;2023-07-30T10:19:46;3.83;;;3.05;;
21181;SDS011;10749;46.296;7.524;2023-07-30T10:24:39;3.50;;;3.20;;
21181;SDS011;10749;46.296;7.524;2023-07-30T10:27:08;3.28;;;2.97;;
21181;SDS011;10749;46.296;7.524;2023-07-30T10:29:37;3.92;;;3.17;;
21181;SDS011;10749;46.296;7.524;2023-07-30T10:32:06;4.30;;;2.80;;
21181;SDS011;10749;46.296;7.524;2023-07-30T10:34:47;3.75;;;2.65;;
21181;SDS011;10749;46.296;7.524;2023-07-30T10:37:22;2.70;;;2.50;;
21181;SDS011;10749;46.296;7.524;2023-07-30T10:39:49;2.60;;;2.38;;
21181;SDS011;10749;46.296;7.524;2023-07-30T10:42:15;2.83;;;2.33;;
21181;SDS011;10749;46.296;7.524;2023-07-30T10:44:45;2.67;;;2.47;;
21181;SDS011;10749;46.296;7.524;2023-07-30T10:47:11;3.15;;;1.95;;
21181;SDS011;10749;46.296;7.524;2023-07-30T10:49:37;3.20;;;2.30;;
21181;SDS011;10749;46.296;7.524;2023-07-30T10:52:06;2.58;;;1.80;;
21181;SDS011;10749;46.296;7.524;2023-07-30T10:54:36;2.10;;;1.80;;
21181;SDS011;10749;46.296;7.524;2023-07-30T10:57:05;2.40;;;2.03;;
21181;SDS011;10749;46.296;7.524;2023-07-30T10:59:34;2.47;;;2.08;;
21181;SDS011;10749;46.296;7.524;2023-07-30T11:02:01;2.45;;;2.05;;
21181;SDS011;10749;46.296;7.524;2023-07-30T11:04:27;2.83;;;2.20;;
21181;SDS011;10749;46.296;7.524;2023-07-30T11:06:52;3.80;;;2.92;;
21181;SDS011;10749;46.296;7.524;2023-07-30T11:09:21;2.83;;;2.53;;
21181;SDS011;10749;46.296;7.524;2023-07-30T11:11:48;2.60;;;2.40;;
21181;SDS011;10749;46.296;7.524;2023-07-30T11:14:15;3.03;;;2.22;;
21181;SDS011;10749;46.296;7.524;2023-07-30T11:16:47;3.25;;;2.45;;
21181;SDS011;10749;46.296;7.524;2023-07-30T11:19:16;4.50;;;2.50;;
21181;SDS011;10749;46.296;7.524;2023-07-30T11:21:46;3.03;;;2.67;;
21181;SDS011;10749;46.296;7.524;2023-07-30T11:24:12;2.83;;;2.47;;
21181;SDS011;10749;46.296;7.524;2023-07-30T11:26:38;2.28;;;2.08;;
21181;SDS011;10749;46.296;7.524;2023-07-30T11:29:16;2.20;;;1.90;;
21181;SDS011;10749;46.296;7.524;2023-07-30T11:31:43;3.08;;;2.38;;
21181;SDS011;10749;46.296;7.524;2023-07-30T11:34:09;2.33;;;2.13;;
21181;SDS011;10749;46.296;7.524;2023-07-30T11:36:35;3.72;;;2.28;;
21181;SDS011;10749;46.296;7.524;2023-07-30T11:39:00;2.42;;;2.10;;
21181;SDS011;10749;46.296;7.524;2023-07-30T11:41:26;2.15;;;1.95;;
21181;SDS011;10749;46.296;7.524;2023-07-30T11:43:53;3.53;;;1.83;;
21181;SDS011;10749;46.296;7.524;2023-07-30T11:46:19;3.30;;;2.00;;
21181;SDS011;10749;46.296;7.524;2023-07-30T11:48:47;2.70;;;2.00;;
21181;SDS011;10749;46.296;7.524;2023-07-30T11:51:27;2.65;;;1.83;;
21181;SDS011;10749;46.296;7.524;2023-07-30T11:53:58;2.08;;;1.88;;
21181;SDS011;10749;46.296;7.524;2023-07-30T11:56:27;2.05;;;1.80;;
21181;SDS011;10749;46.296;7.524;2023-07-30T11:58:55;3.20;;;2.08;;
21181;SDS011;10749;46.296;7.524;2023-07-30T12:01:23;3.20;;;1.95;;
21181;SDS011;10749;46.296;7.524;2023-07-30T12:03:50;2.25;;;1.88;;
21181;SDS011;10749;46.296;7.524;2023-07-30T12:06:18;2.50;;;2.30;;
21181;SDS011;10749;46.296;7.524;2023-07-30T12:08:43;2.97;;;2.20;;
21181;SDS011;10749;46.296;7.524;2023-07-30T12:11:09;4.32;;;2.25;;
21181;SDS011;10749;46.296;7.524;2023-07-30T12:13:41;3.92;;;3.53;;
21181;SDS011;10749;46.296;7.524;2023-07-30T12:16:10;9.45;;;7.00;;
21181;SDS011;10749;46.296;7.524;2023-07-30T12:18:37;8.13;;;5.68;;
21181;SDS011;10749;46.296;7.524;2023-07-30T12:21:02;17.35;;;10.88;;
21181;SDS011;10749;46.296;7.524;2023-07-30T12:23:29;6.70;;;3.40;;
21181;SDS011;10749;46.296;7.524;2023-07-30T12:25:55;3.22;;;1.98;;
21181;SDS011;10749;46.296;7.524;2023-07-30T12:28:20;5.20;;;2.95;;
21181;SDS011;10749;46.296;7.524;2023-07-30T12:30:45;15.88;;;10.13;;
21181;SDS011;10749;46.296;7.524;2023-07-30T12:33:11;7.30;;;5.13;;
21181;SDS011;10749;46.296;7.524;2023-07-30T12:35:36;19.13;;;12.02;;
21181;SDS011;10749;46.296;7.524;2023-07-30T12:38:01;5.15;;;2.83;;
21181;SDS011;10749;46.296;7.524;2023-07-30T12:40:27;2.78;;;2.03;;
21181;SDS011;10749;46.296;7.524;2023-07-30T12:42:54;6.68;;;3.15;;
21181;SDS011;10749;46.296;7.524;2023-07-30T12:45:20;2.00;;;1.77;;
21181;SDS011;10749;46.296;7.524;2023-07-30T12:47:45;3.78;;;1.60;;
21181;SDS011;10749;46.296;7.524;2023-07-30T12:50:10;1.75;;;1.60;;
21181;SDS011;10749;46.296;7.524;2023-07-30T12:52:36;1.75;;;1.50;;
21181;SDS011;10749;46.296;7.524;2023-07-30T12:55:02;2.85;;;1.55;;
21181;SDS011;10749;46.296;7.524;2023-07-30T12:57:29;4.30;;;1.60;;
21181;SDS011;10749;46.296;7.524;2023-07-30T12:59:55;1.77;;;1.63;;
21181;SDS011;10749;46.296;7.524;2023-07-30T13:02:20;1.73;;;1.45;;
21181;SDS011;10749;46.296;7.524;2023-07-30T13:04:45;3.10;;;1.50;;
21181;SDS011;10749;46.296;7.524;2023-07-30T13:07:10;2.95;;;1.60;;
21181;SDS011;10749;46.296;7.524;2023-07-30T13:09:36;2.13;;;1.80;;
21181;SDS011;10749;46.296;7.524;2023-07-30T13:12:01;1.88;;;1.63;;
21181;SDS011;10749;46.296;7.524;2023-07-30T13:14:26;2.00;;;1.55;;
21181;SDS011;10749;46.296;7.524;2023-07-30T13:16:51;2.63;;;1.80;;
21181;SDS011;10749;46.296;7.524;2023-07-30T13:19:17;2.22;;;1.80;;
21181;SDS011;10749;46.296;7.524;2023-07-30T13:21:42;2.38;;;1.63;;
21181;SDS011;10749;46.296;7.524;2023-07-30T13:24:10;1.75;;;1.65;;
21181;SDS011;10749;46.296;7.524;2023-07-30T13:26:35;1.85;;;1.65;;
21181;SDS011;10749;46.296;7.524;2023-07-30T13:29:01;2.17;;;1.70;;
21181;SDS011;10749;46.296;7.524;2023-07-30T13:31:26;3.55;;;2.30;;
21181;SDS011;10749;46.296;7.524;2023-07-30T13:33:52;2.00;;;1.67;;
21181;SDS011;10749;46.296;7.524;2023-07-30T13:36:17;2.00;;;1.85;;
21181;SDS011;10749;46.296;7.524;2023-07-30T13:38:42;2.38;;;1.65;;
21181;SDS011;10749;46.296;7.524;2023-07-30T13:41:08;2.30;;;1.40;;
21181;SDS011;10749;46.296;7.524;2023-07-30T13:43:34;3.33;;;2.00;;
21181;SDS011;10749;46.296;7.524;2023-07-30T13:45:59;2.45;;;1.98;;
21181;SDS011;10749;46.296;7.524;2023-07-30T13:48:25;1.67;;;1.58;;
21181;SDS011;10749;46.296;7.524;2023-07-30T13:50:50;2.15;;;1.75;;
21181;SDS011;10749;46.296;7.524;2023-07-30T13:53:16;2.35;;;2.13;;
21181;SDS011;10749;46.296;7.524;2023-07-30T13:55:42;4.40;;;1.70;;
21181;SDS011;10749;46.296;7.524;2023-07-30T13:58:08;2.03;;;1.83;;
21181;SDS011;10749;46.296;7.524;2023-07-30T14:00:34;2.05;;;1.50;;
21181;SDS011;10749;46.296;7.524;2023-07-30T14:02:59;2.13;;;1.90;;
21181;SDS011;10749;46.296;7.524;2023-07-30T14:05:25;3.67;;;1.60;;
21181;SDS011;10749;46.296;7.524;2023-07-30T14:07:50;1.92;;;1.55;;
21181;SDS011;10749;46.296;7.524;2023-07-30T14:10:18;3.38;;;1.38;;
21181;SDS011;10749;46.296;7.524;2023-07-30T14:12:44;2.83;;;1.60;;
21181;SDS011;10749;46.296;7.524;2023-07-30T14:15:09;2.10;;;1.58;;
21181;SDS011;10749;46.296;7.524;2023-07-30T14:17:34;2.28;;;1.98;;
21181;SDS011;10749;46.296;7.524;2023-07-30T14:20:00;2.75;;;1.65;;
21181;SDS011;10749;46.296;7.524;2023-07-30T14:22:25;2.20;;;1.60;;
21181;SDS011;10749;46.296;7.524;2023-07-30T14:24:50;1.92;;;1.65;;
21181;SDS011;10749;46.296;7.524;2023-07-30T14:27:16;2.15;;;1.60;;
21181;SDS011;10749;46.296;7.524;2023-07-30T14:29:41;2.00;;;1.67;;
21181;SDS011;10749;46.296;7.524;2023-07-30T14:32:06;1.80;;;1.70;;
21181;SDS011;10749;46.296;7.524;2023-07-30T14:34:32;2.38;;;1.88;;
21181;SDS011;10749;46.296;7.524;2023-07-30T14:36:57;2.22;;;1.77;;
21181;SDS011;10749;46.296;7.524;2023-07-30T14:39:22;2.17;;;1.80;;
21181;SDS011;10749;46.296;7.524;2023-07-30T14:41:48;1.73;;;1.50;;
21181;SDS011;10749;46.296;7.524;2023-07-30T14:44:13;1.98;;;1.58;;